Time;durP1;ratioP1;P1;durP2;ratioP2;P2;SDS_P1;SDS_P2;PMS_P1;PMS_P2;Temp;Humidity;BMP_temperature;BMP_pressure;BME280_temperature;BME280_humidity;BME280_pressure;Samples;Min_cycle;Max_cycle;Signal;HPM_P1;HPM_P2
2023/12/08 00:01:30;;;;;;;20.90;11.47;;;;;;;;;;5024499;28;20579;-75
2023/12/08 00:03:55;;;;;;;20.90;11.43;;;;;;;;;;5025797;28;20610;-75
2023/12/08 00:06:20;;;;;;;21.03;11.10;;;;;;;;;;5032334;28;20312;-74
2023/12/08 00:08:46;;;;;;;22.17;12.50;;;;;;;;;;5037306;28;20197;-74
2023/12/08 00:11:11;;;;;;;19.80;12.23;;;;;;;;;;5018921;28;20210;-75
2023/12/08 00:13:37;;;;;;;22.33;11.27;;;;;;;;;;5028556;28;20194;-74
2023/12/08 00:16:03;;;;;;;24.27;12.77;;;;;;;;;;5029376;28;20474;-74
2023/12/08 00:18:28;;;;;;;20.77;11.93;;;;;;;;;;5031870;28;20242;-74
2023/12/08 00:20:54;;;;;;;20.47;11.87;;;;;;;;;;5035211;28;20671;-75
2023/12/08 00:23:19;;;;;;;22.77;12.30;;;;;;;;;;5037683;28;20299;-75
2023/12/08 00:25:45;;;;;;;21.17;12.17;;;;;;;;;;5036420;28;20221;-74
2023/12/08 00:28:10;;;;;;;24.10;12.53;;;;;;;;;;5025090;28;20213;-74
2023/12/08 00:30:36;;;;;;;24.07;12.33;;;;;;;;;;5030900;28;20202;-74
2023/12/08 00:33:02;;;;;;;22.30;12.30;;;;;;;;;;5039762;28;20506;-75
2023/12/08 00:35:28;;;;;;;22.37;12.30;;;;;;;;;;5037695;28;20216;-74
2023/12/08 00:37:54;;;;;;;28.03;12.73;;;;;;;;;;5038408;28;20550;-74
2023/12/08 00:40:19;;;;;;;22.00;12.60;;;;;;;;;;5028814;28;20190;-75
2023/12/08 00:42:45;;;;;;;20.20;12.00;;;;;;;;;;5033657;28;20552;-74
2023/12/08 00:45:10;;;;;;;18.77;11.50;;;;;;;;;;5037289;28;20217;-74
2023/12/08 00:47:35;;;;;;;21.63;11.97;;;;;;;;;;5031132;28;20710;-75
2023/12/08 00:50:01;;;;;;;24.27;13.30;;;;;;;;;;5031050;28;20653;-74
2023/12/08 00:52:26;;;;;;;21.83;11.60;;;;;;;;;;5033686;28;20644;-74
2023/12/08 00:54:52;;;;;;;21.87;11.97;;;;;;;;;;5034907;28;20657;-74
2023/12/08 00:57:17;;;;;;;22.57;13.03;;;;;;;;;;5030512;28;20298;-75
2023/12/08 00:59:42;;;;;;;21.07;12.77;;;;;;;;;;5028101;28;20186;-74
2023/12/08 01:02:08;;;;;;;23.87;13.87;;;;;;;;;;5029085;28;20239;-74
2023/12/08 01:04:34;;;;;;;21.33;11.73;;;;;;;;;;5034956;28;20193;-74
2023/12/08 01:06:59;;;;;;;23.60;12.07;;;;;;;;;;5015273;28;20190;-74
2023/12/08 01:09:25;;;;;;;23.27;12.70;;;;;;;;;;5028908;28;20189;-74
2023/12/08 01:11:50;;;;;;;22.03;12.73;;;;;;;;;;5035000;28;20278;-75
2023/12/08 01:14:16;;;;;;;19.67;11.70;;;;;;;;;;5029662;28;20617;-75
2023/12/08 01:16:42;;;;;;;22.80;13.10;;;;;;;;;;5008049;28;20195;-74
2023/12/08 01:19:08;;;;;;;21.43;12.97;;;;;;;;;;4997732;28;20226;-75
2023/12/08 01:21:38;;;;;;;20.97;11.67;;;;;;;;;;5014032;28;20179;-75
2023/12/08 01:24:04;;;;;;;20.10;11.17;;;;;;;;;;5017783;28;20194;-74
2023/12/08 01:26:30;;;;;;;25.17;12.53;;;;;;;;;;5004503;28;20194;-74
2023/12/08 01:28:55;;;;;;;21.67;12.03;;;;;;;;;;4997689;28;20214;-74
2023/12/08 01:31:21;;;;;;;20.63;12.27;;;;;;;;;;5005087;28;20218;-74
2023/12/08 01:33:47;;;;;;;22.43;11.43;;;;;;;;;;5018127;28;20183;-75
2023/12/08 01:36:12;;;;;;;22.60;13.60;;;;;;;;;;5022740;28;20422;-74
2023/12/08 01:38:38;;;;;;;19.70;12.03;;;;;;;;;;5019738;28;20193;-74
2023/12/08 01:41:03;;;;;;;22.97;11.77;;;;;;;;;;5010310;28;20498;-74
2023/12/08 01:43:29;;;;;;;20.40;12.13;;;;;;;;;;5019526;28;20186;-74
2023/12/08 01:45:58;;;;;;;20.73;12.43;;;;;;;;;;5018945;28;20228;-74
2023/12/08 01:48:24;;;;;;;18.43;11.53;;;;;;;;;;5013851;28;20186;-74
2023/12/08 01:50:50;;;;;;;20.77;11.43;;;;;;;;;;5000666;28;20617;-74
2023/12/08 01:53:15;;;;;;;20.13;12.33;;;;;;;;;;5009297;28;20306;-75
2023/12/08 01:55:41;;;;;;;19.17;12.10;;;;;;;;;;5012036;28;20198;-74
2023/12/08 01:58:08;;;;;;;18.73;11.80;;;;;;;;;;5023943;28;20226;-75
2023/12/08 02:00:33;;;;;;;23.03;13.17;;;;;;;;;;5012373;28;20187;-74
2023/12/08 02:02:59;;;;;;;19.23;10.80;;;;;;;;;;5011865;28;20574;-74
2023/12/08 02:05:26;;;;;;;19.93;12.07;;;;;;;;;;5008337;28;20373;-74
2023/12/08 02:07:53;;;;;;;20.17;12.30;;;;;;;;;;5006300;28;20198;-74
2023/12/08 02:10:19;;;;;;;22.40;11.93;;;;;;;;;;5002860;28;20562;-74
2023/12/08 02:12:45;;;;;;;23.03;12.93;;;;;;;;;;5003655;28;20219;-74
2023/12/08 02:15:12;;;;;;;21.03;12.13;;;;;;;;;;5029229;28;20300;-74
2023/12/08 02:17:38;;;;;;;20.70;12.30;;;;;;;;;;5027795;28;20297;-74
2023/12/08 02:20:06;;;;;;;21.47;12.77;;;;;;;;;;5025825;28;20212;-74
2023/12/08 02:22:33;;;;;;;23.37;13.73;;;;;;;;;;5041300;28;20192;-74
2023/12/08 02:24:58;;;;;;;19.33;12.10;;;;;;;;;;5028834;28;20309;-74
2023/12/08 02:27:25;;;;;;;24.17;13.03;;;;;;;;;;5031281;28;20843;-74
2023/12/08 02:29:51;;;;;;;23.70;12.60;;;;;;;;;;5035005;28;20268;-74
2023/12/08 02:32:56;;;;;;;22.83;12.80;;;;;;;;;;5031032;28;20622;-74
2023/12/08 02:35:23;;;;;;;18.83;11.13;;;;;;;;;;5020999;28;20194;-74
2023/12/08 02:37:51;;;;;;;18.40;11.07;;;;;;;;;;5027215;28;20642;-74
2023/12/08 02:40:18;;;;;;;18.90;11.20;;;;;;;;;;5028269;28;20283;-74
2023/12/08 02:42:43;;;;;;;23.23;11.60;;;;;;;;;;5027189;28;20251;-74
2023/12/08 02:45:09;;;;;;;18.83;11.40;;;;;;;;;;5035285;28;20670;-74
2023/12/08 02:47:34;;;;;;;20.00;12.13;;;;;;;;;;5028688;28;20653;-74
2023/12/08 02:50:00;;;;;;;23.70;12.07;;;;;;;;;;5014377;28;20197;-74
2023/12/08 02:52:25;;;;;;;21.60;12.67;;;;;;;;;;5041367;28;20272;-74
2023/12/08 02:54:51;;;;;;;21.10;12.47;;;;;;;;;;5027190;28;20263;-73
2023/12/08 02:57:16;;;;;;;19.90;12.27;;;;;;;;;;5027927;28;20195;-74
2023/12/08 02:59:41;;;;;;;23.47;11.73;;;;;;;;;;5027832;28;20202;-74
2023/12/08 03:02:07;;;;;;;23.03;12.83;;;;;;;;;;5035840;28;20190;-74
2023/12/08 03:04:32;;;;;;;18.60;11.90;;;;;;;;;;5032730;28;20197;-74
2023/12/08 03:06:58;;;;;;;21.07;11.90;;;;;;;;;;5033029;28;20627;-74
2023/12/08 03:09:23;;;;;;;24.03;12.83;;;;;;;;;;5028261;28;20629;-74
2023/12/08 03:11:48;;;;;;;22.20;12.30;;;;;;;;;;5029866;28;20751;-74
2023/12/08 03:14:14;;;;;;;19.13;11.30;;;;;;;;;;5029346;28;20254;-74
2023/12/08 03:16:40;;;;;;;20.20;11.80;;;;;;;;;;5028246;28;20634;-74
2023/12/08 03:19:05;;;;;;;20.50;12.23;;;;;;;;;;5033085;28;20213;-74
2023/12/08 03:21:30;;;;;;;21.73;12.43;;;;;;;;;;5020934;28;20317;-74
2023/12/08 03:23:56;;;;;;;22.80;12.97;;;;;;;;;;5027580;28;20194;-74
2023/12/08 03:26:21;;;;;;;22.87;12.70;;;;;;;;;;5021760;28;20186;-74
2023/12/08 03:28:47;;;;;;;23.43;12.30;;;;;;;;;;5026021;28;20203;-74
2023/12/08 03:31:26;;;;;;;21.73;12.93;;;;;;;;;;5048046;28;20182;-75
2023/12/08 03:33:52;;;;;;;22.00;12.90;;;;;;;;;;5028561;28;20214;-74
2023/12/08 03:36:18;;;;;;;20.60;12.60;;;;;;;;;;5031636;28;20648;-74
2023/12/08 03:38:43;;;;;;;25.73;12.93;;;;;;;;;;5028296;28;20197;-75
2023/12/08 03:41:10;;;;;;;21.33;12.93;;;;;;;;;;5037248;28;20543;-75
2023/12/08 03:43:36;;;;;;;22.27;12.50;;;;;;;;;;5028968;28;20202;-75
2023/12/08 03:46:02;;;;;;;22.17;12.17;;;;;;;;;;5034203;28;20272;-75
2023/12/08 03:48:27;;;;;;;23.77;13.03;;;;;;;;;;5031488;28;20198;-74
2023/12/08 03:50:53;;;;;;;19.43;11.87;;;;;;;;;;5029419;28;20236;-74
2023/12/08 03:53:18;;;;;;;23.10;13.03;;;;;;;;;;5032629;28;20759;-74
2023/12/08 03:55:44;;;;;;;25.10;12.73;;;;;;;;;;5035786;28;20689;-75
2023/12/08 03:58:09;;;;;;;25.10;12.37;;;;;;;;;;5039358;28;20190;-74
2023/12/08 04:00:35;;;;;;;25.23;13.00;;;;;;;;;;5031557;28;20220;-75
2023/12/08 04:03:00;;;;;;;22.50;12.80;;;;;;;;;;5041634;28;20313;-75
2023/12/08 04:05:25;;;;;;;23.00;12.73;;;;;;;;;;5036995;28;20233;-74
2023/12/08 04:07:51;;;;;;;25.13;13.20;;;;;;;;;;5029851;28;20644;-75
2023/12/08 04:10:16;;;;;;;24.30;13.20;;;;;;;;;;5008679;28;20190;-75
2023/12/08 04:12:42;;;;;;;23.20;12.47;;;;;;;;;;5026846;28;20616;-75
2023/12/08 04:15:07;;;;;;;22.67;12.90;;;;;;;;;;5036444;28;20934;-75
2023/12/08 04:17:33;;;;;;;23.67;13.43;;;;;;;;;;5029680;28;20596;-75
2023/12/08 04:19:58;;;;;;;24.33;12.87;;;;;;;;;;5034315;28;20559;-75
2023/12/08 04:22:24;;;;;;;25.10;13.13;;;;;;;;;;5027970;28;20193;-76
2023/12/08 04:24:49;;;;;;;21.67;12.73;;;;;;;;;;5035416;28;20186;-76
2023/12/08 04:27:15;;;;;;;24.40;13.57;;;;;;;;;;5024286;28;20218;-76
2023/12/08 04:29:40;;;;;;;24.47;13.80;;;;;;;;;;5037499;28;20226;-76
2023/12/08 04:32:06;;;;;;;24.47;12.63;;;;;;;;;;5035061;28;20252;-76
2023/12/08 04:34:31;;;;;;;22.63;13.07;;;;;;;;;;5020174;28;20214;-76
2023/12/08 04:36:57;;;;;;;28.40;13.40;;;;;;;;;;5032818;28;20662;-76
2023/12/08 04:39:22;;;;;;;21.50;12.50;;;;;;;;;;5032821;28;20704;-76
2023/12/08 04:41:48;;;;;;;23.63;12.23;;;;;;;;;;5033110;28;20638;-77
2023/12/08 04:44:13;;;;;;;20.67;11.67;;;;;;;;;;5032867;28;20193;-77
2023/12/08 04:46:38;;;;;;;22.80;12.97;;;;;;;;;;5019510;28;20505;-77
2023/12/08 04:49:04;;;;;;;25.50;13.53;;;;;;;;;;5026910;28;20711;-77
2023/12/08 04:51:29;;;;;;;24.77;13.07;;;;;;;;;;5027741;28;20304;-78
2023/12/08 04:53:55;;;;;;;22.53;12.57;;;;;;;;;;5023131;28;20355;-78
2023/12/08 04:56:20;;;;;;;24.93;13.37;;;;;;;;;;5012759;28;20257;-78
2023/12/08 04:58:47;;;;;;;25.13;13.73;;;;;;;;;;5021399;28;20558;-79
2023/12/08 05:01:14;;;;;;;25.63;12.20;;;;;;;;;;5034708;28;20242;-79
2023/12/08 05:03:40;;;;;;;24.73;12.57;;;;;;;;;;5033091;28;20247;-80
2023/12/08 05:06:07;;;;;;;26.37;13.20;;;;;;;;;;5032339;28;20185;-79
2023/12/08 05:08:32;;;;;;;22.43;12.73;;;;;;;;;;5029202;28;20198;-79
2023/12/08 05:10:58;;;;;;;25.67;13.63;;;;;;;;;;5044702;28;20197;-79
2023/12/08 05:13:23;;;;;;;23.67;12.60;;;;;;;;;;5043146;28;20874;-80
2023/12/08 05:15:49;;;;;;;21.80;12.40;;;;;;;;;;5029482;28;20240;-80
2023/12/08 05:18:14;;;;;;;28.10;13.13;;;;;;;;;;5030074;28;20206;-80
2023/12/08 05:20:40;;;;;;;23.23;13.07;;;;;;;;;;5030092;28;20191;-80
2023/12/08 05:23:05;;;;;;;25.33;13.17;;;;;;;;;;5039588;28;20202;-80
2023/12/08 05:25:30;;;;;;;24.50;12.70;;;;;;;;;;5023672;28;20675;-79
2023/12/08 05:27:56;;;;;;;27.53;14.67;;;;;;;;;;5033504;28;20708;-79
2023/12/08 05:30:21;;;;;;;25.40;13.53;;;;;;;;;;5024375;28;20600;-79
2023/12/08 05:32:47;;;;;;;23.07;12.53;;;;;;;;;;5031482;28;20772;-79
2023/12/08 05:35:13;;;;;;;24.10;13.80;;;;;;;;;;5025183;28;20553;-79
2023/12/08 05:37:39;;;;;;;24.70;14.03;;;;;;;;;;5030948;28;20197;-79
2023/12/08 05:40:06;;;;;;;25.87;13.00;;;;;;;;;;5031759;28;20197;-79
2023/12/08 05:42:32;;;;;;;24.87;13.67;;;;;;;;;;5032622;28;20657;-79
2023/12/08 05:44:59;;;;;;;25.10;13.20;;;;;;;;;;5026428;28;20273;-79
2023/12/08 05:47:24;;;;;;;25.03;13.90;;;;;;;;;;5027297;28;20555;-79
2023/12/08 05:49:50;;;;;;;29.27;14.93;;;;;;;;;;5033199;28;20182;-79
2023/12/08 05:52:15;;;;;;;24.37;13.73;;;;;;;;;;5031845;28;20749;-79
2023/12/08 05:54:41;;;;;;;27.17;14.60;;;;;;;;;;5027374;28;20199;-79
2023/12/08 05:57:07;;;;;;;26.90;14.33;;;;;;;;;;5023030;28;21363;-79
2023/12/08 05:59:33;;;;;;;27.47;14.57;;;;;;;;;;5032117;28;20648;-79
2023/12/08 06:01:58;;;;;;;28.17;14.67;;;;;;;;;;5016701;28;20193;-78
2023/12/08 06:04:24;;;;;;;24.90;13.87;;;;;;;;;;5037021;28;20197;-78
2023/12/08 06:06:49;;;;;;;28.30;14.40;;;;;;;;;;5029404;28;20650;-78
2023/12/08 06:09:14;;;;;;;31.30;15.70;;;;;;;;;;5030962;28;20251;-78
2023/12/08 06:11:40;;;;;;;28.43;15.10;;;;;;;;;;5027542;28;20225;-78
2023/12/08 06:14:06;;;;;;;30.47;14.90;;;;;;;;;;5033712;28;20582;-78
2023/12/08 06:16:32;;;;;;;25.77;14.47;;;;;;;;;;5023811;28;20230;-78
2023/12/08 06:18:57;;;;;;;32.20;16.43;;;;;;;;;;5016832;28;20236;-78
2023/12/08 06:21:23;;;;;;;27.53;15.40;;;;;;;;;;5024877;28;20224;-78
2023/12/08 06:23:49;;;;;;;28.47;14.87;;;;;;;;;;5029925;28;20311;-78
2023/12/08 06:26:14;;;;;;;25.17;14.17;;;;;;;;;;5020977;28;20209;-78
2023/12/08 06:28:40;;;;;;;25.10;14.77;;;;;;;;;;5019882;28;20194;-78
2023/12/08 06:31:09;;;;;;;30.80;15.13;;;;;;;;;;5011938;28;20190;-78
2023/12/08 06:33:35;;;;;;;28.07;14.60;;;;;;;;;;5031435;28;20243;-78
2023/12/08 06:36:00;;;;;;;30.33;15.70;;;;;;;;;;5023215;28;20185;-78
2023/12/08 06:38:26;;;;;;;29.83;15.47;;;;;;;;;;5007471;28;20205;-78
2023/12/08 06:40:53;;;;;;;31.40;15.97;;;;;;;;;;5028206;28;20327;-78
2023/12/08 06:43:19;;;;;;;29.83;15.37;;;;;;;;;;5014650;28;20326;-78
2023/12/08 06:45:45;;;;;;;32.40;16.53;;;;;;;;;;5025280;28;20272;-78
2023/12/08 06:48:10;;;;;;;26.50;15.37;;;;;;;;;;5019067;28;20182;-78
2023/12/08 06:50:36;;;;;;;31.13;16.47;;;;;;;;;;5019090;28;20218;-78
2023/12/08 06:53:02;;;;;;;30.43;15.43;;;;;;;;;;5018837;28;20267;-78
2023/12/08 06:55:27;;;;;;;33.77;16.50;;;;;;;;;;5014028;28;20190;-78
2023/12/08 06:57:52;;;;;;;33.40;16.10;;;;;;;;;;5035257;28;20189;-78
2023/12/08 07:00:18;;;;;;;32.23;16.17;;;;;;;;;;5038479;28;20536;-78
2023/12/08 07:02:47;;;;;;;35.90;16.90;;;;;;;;;;5036162;28;20189;-79
2023/12/08 07:05:12;;;;;;;33.60;16.03;;;;;;;;;;5025933;28;20274;-78
2023/12/08 07:07:38;;;;;;;32.33;16.63;;;;;;;;;;5010830;28;20544;-78
2023/12/08 07:10:04;;;;;;;32.87;16.77;;;;;;;;;;5030201;28;20348;-78
2023/12/08 07:12:30;;;;;;;34.43;16.50;;;;;;;;;;5024775;28;20410;-78
2023/12/08 07:14:55;;;;;;;32.53;17.10;;;;;;;;;;5028062;28;20334;-78
2023/12/08 07:17:22;;;;;;;28.73;15.77;;;;;;;;;;5027026;28;20273;-78
2023/12/08 07:19:49;;;;;;;35.07;17.13;;;;;;;;;;5027693;28;20206;-78
2023/12/08 07:22:14;;;;;;;33.47;16.10;;;;;;;;;;5008086;28;20185;-78
2023/12/08 07:24:40;;;;;;;35.40;17.63;;;;;;;;;;5025512;28;20284;-77
2023/12/08 07:27:06;;;;;;;34.10;16.73;;;;;;;;;;5022567;28;20187;-77
2023/12/08 07:29:31;;;;;;;32.10;17.13;;;;;;;;;;5023633;28;20227;-78
2023/12/08 07:31:57;;;;;;;33.47;17.57;;;;;;;;;;5010074;28;20199;-78
2023/12/08 07:34:22;;;;;;;32.00;17.63;;;;;;;;;;5014091;28;20190;-78
2023/12/08 07:36:48;;;;;;;33.10;17.40;;;;;;;;;;5019142;28;20194;-78
2023/12/08 07:39:14;;;;;;;37.47;18.20;;;;;;;;;;5024237;28;20190;-78
2023/12/08 07:41:39;;;;;;;33.80;17.10;;;;;;;;;;5009640;28;20182;-78
2023/12/08 07:44:05;;;;;;;34.80;18.73;;;;;;;;;;5021045;28;20276;-78
2023/12/08 07:46:30;;;;;;;36.40;17.30;;;;;;;;;;5041466;28;20185;-78
2023/12/08 07:48:56;;;;;;;34.53;17.57;;;;;;;;;;5022498;28;20190;-78
2023/12/08 07:51:21;;;;;;;33.53;17.03;;;;;;;;;;5009954;28;20243;-78
2023/12/08 07:53:47;;;;;;;36.10;18.73;;;;;;;;;;5022593;28;20729;-78
2023/12/08 07:56:13;;;;;;;34.77;18.57;;;;;;;;;;5018106;28;20182;-77
2023/12/08 07:58:39;;;;;;;33.53;17.90;;;;;;;;;;5013481;28;20189;-78
2023/12/08 08:01:05;;;;;;;36.27;18.70;;;;;;;;;;5029842;28;20183;-78
2023/12/08 08:03:30;;;;;;;36.33;18.73;;;;;;;;;;5024814;28;20540;-78
2023/12/08 08:05:56;;;;;;;35.93;17.87;;;;;;;;;;5015607;28;20556;-78
2023/12/08 08:08:21;;;;;;;34.23;17.80;;;;;;;;;;5039271;28;20584;-78
2023/12/08 08:10:47;;;;;;;37.13;18.47;;;;;;;;;;5011304;28;20256;-77
2023/12/08 08:13:12;;;;;;;33.73;16.07;;;;;;;;;;5024003;28;20298;-77
2023/12/08 08:15:38;;;;;;;38.43;18.50;;;;;;;;;;5027134;28;20230;-78
2023/12/08 08:18:03;;;;;;;34.63;18.10;;;;;;;;;;5020992;28;20575;-78
2023/12/08 08:20:29;;;;;;;37.07;19.00;;;;;;;;;;5045348;28;20400;-77
2023/12/08 08:22:55;;;;;;;36.27;18.83;;;;;;;;;;5009980;28;20234;-77
2023/12/08 08:25:20;;;;;;;33.07;18.53;;;;;;;;;;5012696;28;20205;-77
2023/12/08 08:27:46;;;;;;;41.13;19.30;;;;;;;;;;5021193;28;20295;-77
2023/12/08 08:30:12;;;;;;;36.17;19.83;;;;;;;;;;5009817;28;20201;-78
2023/12/08 08:32:37;;;;;;;37.07;19.33;;;;;;;;;;5024309;28;20221;-78
2023/12/08 08:35:03;;;;;;;37.00;19.80;;;;;;;;;;5036251;28;20269;-78
2023/12/08 08:37:28;;;;;;;35.00;19.27;;;;;;;;;;5023276;28;20194;-78
2023/12/08 08:39:54;;;;;;;34.97;19.70;;;;;;;;;;5041188;28;20665;-77
2023/12/08 08:42:19;;;;;;;33.60;18.50;;;;;;;;;;5036965;28;20642;-77
2023/12/08 08:44:45;;;;;;;39.37;20.77;;;;;;;;;;5037720;28;20194;-77
2023/12/08 08:47:12;;;;;;;35.70;20.37;;;;;;;;;;5030869;28;20217;-78
2023/12/08 08:49:37;;;;;;;38.70;20.63;;;;;;;;;;5031148;28;20179;-78
2023/12/08 08:52:03;;;;;;;36.30;19.87;;;;;;;;;;5029528;28;20218;-78
2023/12/08 08:54:29;;;;;;;38.07;20.97;;;;;;;;;;5020682;28;20236;-77
2023/12/08 08:56:55;;;;;;;36.90;20.00;;;;;;;;;;5023761;28;20197;-77
2023/12/08 08:59:20;;;;;;;34.83;19.87;;;;;;;;;;5022018;28;20189;-77
2023/12/08 09:01:46;;;;;;;36.33;19.77;;;;;;;;;;5010742;28;20178;-77
2023/12/08 09:04:11;;;;;;;41.33;20.27;;;;;;;;;;5009320;28;20240;-77
2023/12/08 09:06:37;;;;;;;42.17;21.33;;;;;;;;;;5024148;28;20467;-77
2023/12/08 09:09:04;;;;;;;34.57;20.03;;;;;;;;;;5017799;28;20187;-77
2023/12/08 09:11:29;;;;;;;34.63;20.20;;;;;;;;;;5025355;28;20565;-78
2023/12/08 09:13:55;;;;;;;38.37;20.43;;;;;;;;;;5039287;28;20198;-77
2023/12/08 09:16:20;;;;;;;36.37;19.10;;;;;;;;;;5012999;28;20771;-78
2023/12/08 09:18:47;;;;;;;39.30;21.37;;;;;;;;;;5023471;28;20308;-78
2023/12/08 09:21:12;;;;;;;42.73;20.90;;;;;;;;;;5026775;28;20190;-77
2023/12/08 09:23:38;;;;;;;48.27;22.97;;;;;;;;;;5024046;28;20292;-77
2023/12/08 09:26:03;;;;;;;41.13;21.57;;;;;;;;;;4996795;28;20186;-76
2023/12/08 09:28:29;;;;;;;46.80;21.80;;;;;;;;;;5023415;28;20583;-77
2023/12/08 09:30:54;;;;;;;47.20;22.60;;;;;;;;;;5026308;28;20194;-76
2023/12/08 09:33:20;;;;;;;43.67;22.57;;;;;;;;;;5036274;28;20206;-77
2023/12/08 09:35:45;;;;;;;45.73;22.37;;;;;;;;;;5029305;28;20209;-76
2023/12/08 09:38:11;;;;;;;46.80;22.20;;;;;;;;;;5030676;28;20265;-77
2023/12/08 09:40:37;;;;;;;53.20;23.93;;;;;;;;;;5034710;28;20285;-77
2023/12/08 09:43:23;;;;;;;51.03;22.20;;;;;;;;;;5007469;28;20187;-77
2023/12/08 09:45:50;;;;;;;51.17;23.90;;;;;;;;;;5021240;28;20692;-76
2023/12/08 09:48:17;;;;;;;51.73;24.67;;;;;;;;;;5009805;28;20219;-76
2023/12/08 09:50:44;;;;;;;55.13;24.47;;;;;;;;;;5010283;28;20186;-76
2023/12/08 09:53:09;;;;;;;51.97;24.67;;;;;;;;;;5025011;28;20312;-76
2023/12/08 09:55:37;;;;;;;53.67;24.57;;;;;;;;;;5027973;28;20386;-76
2023/12/08 09:58:03;;;;;;;65.60;24.20;;;;;;;;;;5028023;28;20213;-76
2023/12/08 10:00:30;;;;;;;61.30;24.87;;;;;;;;;;4997988;28;20214;-76
2023/12/08 10:02:56;;;;;;;54.67;24.57;;;;;;;;;;5016570;28;20225;-77
2023/12/08 10:05:22;;;;;;;54.57;24.90;;;;;;;;;;5012503;28;20230;-77
2023/12/08 10:07:50;;;;;;;64.40;25.77;;;;;;;;;;5012908;28;20234;-76
2023/12/08 10:10:16;;;;;;;61.77;27.33;;;;;;;;;;5026269;28;20243;-74
2023/12/08 10:12:41;;;;;;;70.50;27.57;;;;;;;;;;5023633;28;20223;-76
2023/12/08 10:15:11;;;;;;;62.13;25.93;;;;;;;;;;5017384;28;20234;-75
2023/12/08 10:18:06;;;;;;;64.80;26.80;;;;;;;;;;5018394;28;20195;-75
2023/12/08 10:20:31;;;;;;;67.87;27.20;;;;;;;;;;4980381;28;20679;-75
2023/12/08 10:22:56;;;;;;;62.97;27.63;;;;;;;;;;5019263;28;20185;-75
2023/12/08 10:25:24;;;;;;;66.30;27.03;;;;;;;;;;5025065;28;20186;-75
2023/12/08 10:27:54;;;;;;;74.23;27.03;;;;;;;;;;5020344;28;20250;-75
2023/12/08 10:30:21;;;;;;;60.20;26.50;;;;;;;;;;5014668;28;20186;-75
2023/12/08 10:32:47;;;;;;;68.03;27.90;;;;;;;;;;5026934;28;20536;-74
2023/12/08 10:35:13;;;;;;;73.23;28.97;;;;;;;;;;5008197;28;20205;-74
2023/12/08 10:37:39;;;;;;;63.43;27.97;;;;;;;;;;5007989;28;20214;-74
2023/12/08 10:40:10;;;;;;;67.63;28.50;;;;;;;;;;4996581;28;20206;-75
2023/12/08 10:42:36;;;;;;;56.23;27.20;;;;;;;;;;5025183;28;20178;-74
2023/12/08 10:45:22;;;;;;;64.97;29.93;;;;;;;;;;5027291;28;20449;-75
2023/12/08 10:47:49;;;;;;;65.47;28.30;;;;;;;;;;5004867;28;20277;-74
2023/12/08 10:50:15;;;;;;;61.17;28.77;;;;;;;;;;5031780;28;20591;-74
2023/12/08 10:52:40;;;;;;;59.33;27.53;;;;;;;;;;5023184;28;20288;-74
2023/12/08 10:55:07;;;;;;;66.30;29.77;;;;;;;;;;5011854;28;20183;-75
2023/12/08 10:57:34;;;;;;;54.60;27.80;;;;;;;;;;5025822;28;20328;-75
2023/12/08 11:00:18;;;;;;;64.70;29.10;;;;;;;;;;5027718;28;20194;-75
2023/12/08 11:02:49;;;;;;;59.93;29.63;;;;;;;;;;5022424;28;20186;-74
2023/12/08 11:05:38;;;;;;;57.83;27.47;;;;;;;;;;5002228;28;20221;-74
2023/12/08 11:08:12;;;;;;;68.00;29.43;;;;;;;;;;5016201;28;20244;-74
2023/12/08 11:10:40;;;;;;;67.37;29.30;;;;;;;;;;5017871;28;20308;-74
2023/12/08 11:13:11;;;;;;;68.23;30.63;;;;;;;;;;5021226;28;20205;-74
2023/12/08 11:15:43;;;;;;;62.27;31.03;;;;;;;;;;5024972;28;20737;-74
2023/12/08 11:18:38;;;;;;;73.27;30.13;;;;;;;;;;5014094;28;20296;-74
2023/12/08 11:21:07;;;;;;;65.87;28.83;;;;;;;;;;5009515;28;20199;-74
2023/12/08 11:23:35;;;;;;;71.73;30.40;;;;;;;;;;5027963;28;20280;-74
2023/12/08 11:26:07;;;;;;;63.20;27.57;;;;;;;;;;5034234;28;20198;-74
2023/12/08 11:28:46;;;;;;;62.13;29.20;;;;;;;;;;5025499;28;20182;-74
2023/12/08 11:31:41;;;;;;;69.23;29.17;;;;;;;;;;5009643;28;20178;-74
2023/12/08 11:34:14;;;;;;;62.43;29.33;;;;;;;;;;5018528;28;20214;-74
2023/12/08 11:36:45;;;;;;;63.43;28.87;;;;;;;;;;5018615;28;20232;-74
2023/12/08 11:39:37;;;;;;;59.83;27.17;;;;;;;;;;5014614;28;20189;-74
2023/12/08 11:42:03;;;;;;;67.10;29.97;;;;;;;;;;5006558;28;20710;-74
2023/12/08 11:44:32;;;;;;;61.50;29.83;;;;;;;;;;5020413;28;20190;-74
2023/12/08 11:47:00;;;;;;;61.47;30.37;;;;;;;;;;5038548;28;20289;-74
2023/12/08 11:49:25;;;;;;;60.33;30.07;;;;;;;;;;5030100;28;20214;-73
2023/12/08 11:52:18;;;;;;;65.30;29.57;;;;;;;;;;5017696;28;20245;-74
2023/12/08 11:55:06;;;;;;;67.23;29.70;;;;;;;;;;5047820;28;20186;-73
2023/12/08 11:57:33;;;;;;;63.40;28.03;;;;;;;;;;5011555;28;20197;-74
2023/12/08 11:59:59;;;;;;;62.30;28.43;;;;;;;;;;5015300;28;20207;-74
2023/12/08 12:02:25;;;;;;;67.63;29.10;;;;;;;;;;5010879;28;20186;-74
2023/12/08 12:04:51;;;;;;;62.80;28.87;;;;;;;;;;5023203;28;20201;-74
2023/12/08 12:07:22;;;;;;;71.87;30.23;;;;;;;;;;5027180;28;20185;-73
2023/12/08 12:09:49;;;;;;;63.23;28.70;;;;;;;;;;5046056;28;20628;-74
2023/12/08 12:12:29;;;;;;;62.90;27.87;;;;;;;;;;5030222;28;20209;-74
2023/12/08 12:14:55;;;;;;;70.23;28.93;;;;;;;;;;5013591;28;20222;-74
2023/12/08 12:17:24;;;;;;;65.47;29.57;;;;;;;;;;5024513;28;20276;-74
2023/12/08 12:19:51;;;;;;;56.73;27.47;;;;;;;;;;5020888;28;20190;-76
2023/12/08 12:22:17;;;;;;;63.27;27.97;;;;;;;;;;5027879;28;20244;-74
2023/12/08 12:24:42;;;;;;;63.33;28.23;;;;;;;;;;5017394;28;20179;-74
2023/12/08 12:27:07;;;;;;;62.57;28.07;;;;;;;;;;5018220;28;20705;-75
2023/12/08 12:29:33;;;;;;;72.93;28.73;;;;;;;;;;5020660;28;20205;-74
2023/12/08 12:31:59;;;;;;;70.77;28.40;;;;;;;;;;5035458;28;20206;-74
2023/12/08 12:34:25;;;;;;;66.73;27.43;;;;;;;;;;5031063;28;20197;-74
2023/12/08 12:36:50;;;;;;;67.47;26.43;;;;;;;;;;5030376;28;20200;-75
2023/12/08 12:39:16;;;;;;;65.23;27.77;;;;;;;;;;5018272;28;20198;-75
2023/12/08 12:41:41;;;;;;;74.00;27.67;;;;;;;;;;5023086;28;20186;-75
2023/12/08 12:44:07;;;;;;;66.87;26.63;;;;;;;;;;5046348;28;20198;-75
2023/12/08 12:46:32;;;;;;;63.07;26.97;;;;;;;;;;5028362;28;20194;-74
2023/12/08 12:48:58;;;;;;;67.97;26.87;;;;;;;;;;5032965;28;20247;-75
2023/12/08 12:51:37;;;;;;;72.43;27.03;;;;;;;;;;5019252;28;20633;-74
2023/12/08 12:54:03;;;;;;;60.10;26.60;;;;;;;;;;5015045;28;20194;-74
2023/12/08 12:56:31;;;;;;;82.43;27.87;;;;;;;;;;5017990;28;20313;-75
2023/12/08 12:59:08;;;;;;;75.20;27.20;;;;;;;;;;5026398;28;20185;-74
2023/12/08 13:01:34;;;;;;;70.87;27.60;;;;;;;;;;5020288;28;20303;-75
2023/12/08 13:04:00;;;;;;;66.43;26.43;;;;;;;;;;5004400;28;20186;-75
2023/12/08 13:06:29;;;;;;;70.37;26.10;;;;;;;;;;5023508;28;20193;-75
2023/12/08 13:08:59;;;;;;;71.07;28.83;;;;;;;;;;5020836;28;20260;-75
2023/12/08 13:11:25;;;;;;;63.93;26.70;;;;;;;;;;5021392;28;20205;-75
2023/12/08 13:13:51;;;;;;;69.87;27.33;;;;;;;;;;5020595;28;20865;-74
2023/12/08 13:16:17;;;;;;;60.47;25.53;;;;;;;;;;5018612;28;20226;-75
2023/12/08 13:18:46;;;;;;;71.47;26.43;;;;;;;;;;5017107;28;20217;-75
2023/12/08 13:21:11;;;;;;;75.03;26.80;;;;;;;;;;5017102;28;20304;-75
2023/12/08 13:23:37;;;;;;;65.40;25.37;;;;;;;;;;5018813;28;20646;-75
2023/12/08 13:26:04;;;;;;;73.40;26.03;;;;;;;;;;5018296;28;20863;-74
2023/12/08 13:28:30;;;;;;;81.20;26.43;;;;;;;;;;5017459;28;20657;-74
2023/12/08 13:30:55;;;;;;;68.17;25.30;;;;;;;;;;5017721;28;20179;-74
2023/12/08 13:33:22;;;;;;;76.63;26.87;;;;;;;;;;5019870;28;20811;-74
2023/12/08 13:35:47;;;;;;;76.17;24.83;;;;;;;;;;5016201;28;20272;-74
2023/12/08 13:38:13;;;;;;;88.30;27.33;;;;;;;;;;5001152;28;20265;-74
2023/12/08 13:40:38;;;;;;;78.10;27.37;;;;;;;;;;5015625;28;20231;-74
2023/12/08 13:43:04;;;;;;;95.10;28.23;;;;;;;;;;5019529;28;20210;-74
2023/12/08 13:45:30;;;;;;;93.30;26.73;;;;;;;;;;5018206;28;20229;-74
2023/12/08 13:47:56;;;;;;;90.70;27.23;;;;;;;;;;5016425;28;20189;-74
2023/12/08 13:50:21;;;;;;;76.57;25.97;;;;;;;;;;5017674;28;20571;-74
2023/12/08 13:52:47;;;;;;;77.20;27.80;;;;;;;;;;5016462;28;20294;-74
2023/12/08 13:55:12;;;;;;;85.67;26.63;;;;;;;;;;5016637;28;20259;-74
2023/12/08 13:57:38;;;;;;;83.50;27.33;;;;;;;;;;5015472;28;20716;-74
2023/12/08 14:00:05;;;;;;;111.90;29.47;;;;;;;;;;5015348;28;20204;-74
2023/12/08 14:02:31;;;;;;;73.60;26.63;;;;;;;;;;5020590;28;20549;-74
2023/12/08 14:04:56;;;;;;;89.00;27.97;;;;;;;;;;4323111;28;10000714;-74
2023/12/08 14:07:22;;;;;;;85.43;28.13;;;;;;;;;;5024957;28;20824;-74
2023/12/08 14:09:48;;;;;;;94.70;28.13;;;;;;;;;;5009967;28;20190;-74
2023/12/08 14:12:13;;;;;;;102.70;28.07;;;;;;;;;;5025497;28;20209;-74
2023/12/08 14:14:38;;;;;;;105.00;29.47;;;;;;;;;;5037895;28;20229;-74